Hixton, Wisconsin
Current Conditions -  °F | °C
As of 10:55 PM on Friday 31 Oct 2014 (Local Time) from KBCK Reporting Station
Clear Clear  
Wind Chill: 22°   Ceiling: Unl
Heat Index: 28°   Visibility: 10mi
Dew Point: 18°   Wind: 6mph
Humidity: 65%   Direction: 40°NE
Pressure: 30.48"   Gusts: NA
Location:  44.39°N, 91.01°W
Report Text: KBCK 010355Z AUTO 04005KT 10SM CLR M02/M08 A3048 RMK AO2 T10201077
Loading
Personal Weather Stations






























Interactive Weather Map
Tropical Storm Tracking
New forecast layout! Learn more

10-Day Weather Forecast

Advertisements
Track Severe Weather on mobile